Time;durP1;ratioP1;P1;durP2;ratioP2;P2;SDS_P1;SDS_P2;PMS_P1;PMS_P2;Temp;Humidity;BMP_temperature;BMP_pressure;BME280_temperature;BME280_humidity;BME280_pressure;Samples;Min_cycle;Max_cycle;Signal;HPM_P1;HPM_P2
2023/02/03 00:02:28;;;;;;;16.90;8.30;;;;;;;-1.81;78.54;100922.14;130436;1296;23872;-89
2023/02/03 00:05:32;;;;;;;19.50;9.30;;;;;;;-1.82;78.35;100923.06;130779;1294;22564;-86
2023/02/03 00:08:35;;;;;;;14.40;7.90;;;;;;;-1.84;78.59;100921.58;130508;1296;22688;-88
2023/02/03 00:11:36;;;;;;;18.30;8.60;;;;;;;-1.84;78.35;100921.23;130633;1298;22730;-87
2023/02/03 00:14:37;;;;;;;14.80;7.30;;;;;;;-1.84;78.62;100920.91;130697;1298;25417;-87
2023/02/03 00:17:37;;;;;;;17.30;8.20;;;;;;;-1.85;78.54;100922.14;130430;1296;22616;-89
2023/02/03 00:20:38;;;;;;;12.70;6.60;;;;;;;-1.85;78.76;100922.52;130281;1293;24314;-88
2023/02/03 00:23:45;;;;;;;13.30;6.80;;;;;;;-1.88;78.87;100919.52;130300;1296;22651;-88
2023/02/03 00:26:45;;;;;;;11.50;6.70;;;;;;;-1.89;78.73;100915.21;130527;1298;22562;-88
2023/02/03 00:29:48;;;;;;;14.40;8.00;;;;;;;-1.90;78.82;100913.88;130339;1295;26661;-88
2023/02/03 00:32:49;;;;;;;19.20;7.50;;;;;;;-1.92;78.87;100907.40;130531;1295;22617;-87
2023/02/03 00:35:50;;;;;;;16.90;7.80;;;;;;;-1.94;78.62;100907.98;130223;1296;22715;-89
2023/02/03 00:38:50;;;;;;;14.90;7.30;;;;;;;-1.96;78.69;100908.44;130325;1297;22599;-87
2023/02/03 00:41:51;;;;;;;16.10;8.30;;;;;;;-2.01;78.77;100909.17;130325;1295;24227;-88
2023/02/03 00:44:52;;;;;;;15.10;7.80;;;;;;;-2.07;78.71;100907.49;130319;1294;25635;-87
2023/02/03 00:47:52;;;;;;;19.40;8.60;;;;;;;-2.11;78.97;100905.61;130426;1295;25405;-88
2023/02/03 00:50:53;;;;;;;18.60;8.60;;;;;;;-2.13;78.94;100901.02;130816;1285;24257;-86
2023/02/03 00:53:55;;;;;;;16.70;8.00;;;;;;;-2.12;79.04;100907.05;130586;1298;25349;-89
2023/02/03 00:56:56;;;;;;;18.50;7.70;;;;;;;-2.12;79.11;100906.69;130591;1295;22654;-88
2023/02/03 00:59:57;;;;;;;15.90;8.30;;;;;;;-2.14;79.25;100904.73;130519;1295;23262;-87
2023/02/03 01:02:57;;;;;;;31.80;9.10;;;;;;;-2.18;79.36;100898.11;130630;1295;22616;-87
2023/02/03 01:06:28;;;;;;;18.80;9.00;;;;;;;-2.17;79.60;100898.77;130377;1295;25346;-89
2023/02/03 01:09:33;;;;;;;19.70;8.30;;;;;;;-2.18;79.66;100896.40;130618;1295;22562;-86
2023/02/03 01:12:34;;;;;;;14.90;7.40;;;;;;;-2.20;79.73;100894.08;130209;1296;22555;-87
2023/02/03 01:15:34;;;;;;;14.80;8.10;;;;;;;-2.23;79.89;100886.89;130625;1295;22579;-86
2023/02/03 01:18:36;;;;;;;16.20;9.20;;;;;;;-2.22;79.74;100882.38;130360;1295;22581;-89
2023/02/03 01:21:37;;;;;;;22.00;10.70;;;;;;;-2.22;79.87;100880.09;130345;1294;22605;-86
2023/02/03 01:24:37;;;;;;;15.50;8.40;;;;;;;-2.22;79.95;100881.14;130614;1296;25281;-84
2023/02/03 01:27:38;;;;;;;17.70;8.40;;;;;;;-2.25;79.92;100878.16;130485;1295;22653;-89
2023/02/03 01:30:39;;;;;;;20.50;9.60;;;;;;;-2.29;80.05;100875.86;130547;1294;22605;-89
2023/02/03 01:33:40;;;;;;;20.70;9.60;;;;;;;-2.31;80.14;100872.33;130579;1295;23612;-91
2023/02/03 01:36:45;;;;;;;21.20;10.30;;;;;;;-2.31;80.30;100865.23;130488;1295;22659;-91
2023/02/03 01:39:46;;;;;;;21.70;11.60;;;;;;;-2.31;80.37;100853.95;130514;1295;22640;-91
2023/02/03 01:42:49;;;;;;;20.20;10.30;;;;;;;-2.30;80.40;100848.35;130527;1295;22555;-90
2023/02/03 01:45:50;;;;;;;18.00;9.40;;;;;;;-2.30;80.63;100847.66;130828;1295;22855;-90
2023/02/03 01:48:52;;;;;;;;;;;;;;;-2.30;80.61;100835.89;130596;1296;22540;-89
2023/02/03 01:51:53;;;;;;;21.30;10.10;;;;;;;-2.31;80.68;100831.42;130729;1295;22586;-87
2023/02/03 01:54:57;;;;;;;21.00;10.10;;;;;;;-2.31;80.63;100814.27;130418;1295;25316;-90
2023/02/03 01:58:08;;;;;;;21.00;11.10;;;;;;;-2.31;80.87;100806.65;130767;1295;22573;-89
2023/02/03 02:01:09;;;;;;;19.50;9.80;;;;;;;-2.29;80.82;100799.65;130571;1294;24302;-86
2023/02/03 02:04:10;;;;;;;18.20;10.20;;;;;;;-2.29;81.07;100790.77;130445;1295;25394;-89
2023/02/03 02:07:13;;;;;;;21.30;10.10;;;;;;;-2.28;81.12;100783.28;130615;1298;25434;-89
2023/02/03 02:10:15;;;;;;;19.80;10.40;;;;;;;-2.27;81.02;100772.68;130657;1298;22603;-90
2023/02/03 02:13:18;;;;;;;20.60;9.70;;;;;;;-2.26;81.21;100767.61;130468;1295;22584;-89
2023/02/03 02:16:57;;;;;;;23.20;12.30;;;;;;;-2.28;81.09;100753.29;130929;1296;22581;-88
2023/02/03 02:20:24;;;;;;;17.80;8.50;;;;;;;-2.29;81.45;100747.43;130764;1295;25271;-87
2023/02/03 02:23:34;;;;;;;21.10;9.90;;;;;;;-2.29;81.39;100751.43;131047;1295;22577;-86
2023/02/03 02:26:58;;;;;;;18.80;9.60;;;;;;;-2.28;81.88;100752.09;130656;1294;22559;-84
2023/02/03 02:30:22;;;;;;;15.40;9.20;;;;;;;-2.25;81.69;100752.31;130717;1296;23379;-85
2023/02/03 02:33:34;;;;;;;17.70;9.10;;;;;;;-2.22;82.05;100756.70;130521;1295;22524;-87
2023/02/03 02:37:04;;;;;;;19.00;8.30;;;;;;;-2.21;81.61;100761.15;130568;1295;22591;-88
2023/02/03 02:40:05;;;;;;;20.30;8.00;;;;;;;-2.19;81.50;100743.23;130706;1295;23024;-88
2023/02/03 02:43:11;;;;;;;20.10;8.30;;;;;;;-2.20;81.76;100736.84;130631;1295;25291;-86
2023/02/03 02:46:18;;;;;;;22.50;11.40;;;;;;;-2.21;81.94;100740.49;130603;1295;22653;-88
2023/02/03 02:49:27;;;;;;;27.20;11.10;;;;;;;-2.22;82.34;100729.64;130458;1295;22563;-85
2023/02/03 02:52:33;;;;;;;23.50;10.80;;;;;;;-2.23;82.19;100726.74;130415;1295;22629;-85
2023/02/03 02:55:37;;;;;;;24.90;11.70;;;;;;;-2.24;82.23;100720.88;130326;1295;22698;-87
2023/02/03 02:58:43;;;;;;;23.10;11.50;;;;;;;-2.25;82.27;100709.17;130419;1295;24284;-85
2023/02/03 03:01:44;;;;;;;25.70;11.80;;;;;;;-2.27;82.93;100697.44;130346;1294;23330;-84
2023/02/03 03:04:48;;;;;;;22.90;10.80;;;;;;;-2.28;82.74;100688.14;130477;1295;22593;-86
2023/02/03 03:08:01;;;;;;;22.30;10.20;;;;;;;-2.29;82.96;100685.06;130476;1298;22598;-87
2023/02/03 03:11:03;;;;;;;21.70;10.60;;;;;;;-2.29;83.04;100684.02;130700;1289;22572;-89
2023/02/03 03:14:07;;;;;;;23.40;11.70;;;;;;;-2.27;83.43;100675.80;130451;1294;22587;-85
2023/02/03 03:17:11;;;;;;;25.80;12.10;;;;;;;-2.27;83.12;100659.48;130471;1299;22551;-86
2023/02/03 03:20:19;;;;;;;26.30;12.70;;;;;;;-2.26;83.46;100651.13;130632;1295;22543;-84
2023/02/03 03:23:26;;;;;;;20.50;11.10;;;;;;;-2.26;83.68;100650.59;130838;1294;22631;-89
2023/02/03 03:26:44;;;;;;;26.10;11.40;;;;;;;-2.24;83.64;100647.26;130563;1295;22644;-87
2023/02/03 03:29:57;;;;;;;19.30;11.20;;;;;;;-2.23;83.92;100637.12;131020;1294;22658;-86
2023/02/03 03:32:58;;;;;;;21.40;11.00;;;;;;;-2.22;83.83;100632.75;130789;1295;25399;-88
2023/02/03 03:36:07;;;;;;;23.30;10.30;;;;;;;-2.21;84.28;100629.39;130505;1295;22563;-85
2023/02/03 03:39:16;;;;;;;24.60;11.10;;;;;;;-2.18;84.10;100629.11;130472;1295;25380;-87
2023/02/03 03:42:17;;;;;;;20.60;10.70;;;;;;;-2.16;84.45;100626.20;130402;1295;22590;-88
2023/02/03 03:45:42;;;;;;;21.70;10.50;;;;;;;-2.15;84.27;100614.40;130595;1298;24272;-87
2023/02/03 03:48:55;;;;;;;19.50;9.90;;;;;;;-2.13;84.37;100612.91;130585;1295;22524;-89
2023/02/03 03:52:02;;;;;;;20.10;9.20;;;;;;;-2.12;84.55;100619.12;130910;1287;24263;-88
2023/02/03 03:55:07;;;;;;;21.20;9.30;;;;;;;-2.12;84.48;100615.82;130500;1294;25408;-87
2023/02/03 03:58:12;;;;;;;21.00;9.50;;;;;;;-2.10;84.71;100617.10;130573;1293;22513;-86
2023/02/03 04:01:15;;;;;;;17.40;8.90;;;;;;;-2.08;84.33;100612.52;130537;1293;24355;-90
2023/02/03 04:04:18;;;;;;;16.30;9.30;;;;;;;-2.05;84.27;100607.66;130383;1293;25374;-86
2023/02/03 04:07:19;;;;;;;19.30;9.30;;;;;;;-2.01;84.40;100603.17;130838;1295;22556;-90
2023/02/03 04:10:32;;;;;;;24.70;10.70;;;;;;;-1.99;84.55;100598.02;130393;1293;24485;-86
2023/02/03 04:13:32;;;;;;;21.40;9.40;;;;;;;-1.98;84.69;100595.01;130716;1296;25320;-89
2023/02/03 04:16:33;;;;;;;22.00;9.40;;;;;;;-1.96;84.67;100589.89;130489;1298;24267;-86
2023/02/03 04:19:33;;;;;;;18.80;8.80;;;;;;;-1.96;84.62;100589.88;130487;1293;25444;-87
2023/02/03 04:22:34;;;;;;;19.00;8.00;;;;;;;-1.94;84.78;100601.27;130441;1296;23030;-88
2023/02/03 04:25:35;;;;;;;15.40;8.50;;;;;;;-1.93;85.18;100599.81;130723;1295;22525;-86
2023/02/03 04:28:35;;;;;;;;;;;;;;;-1.92;84.93;100602.34;130618;1294;24215;-87
2023/02/03 04:31:37;;;;;;;15.00;7.40;;;;;;;-1.91;85.05;100585.84;130978;1295;24267;-87
2023/02/03 04:34:38;;;;;;;16.10;7.00;;;;;;;-1.90;84.91;100578.34;130774;1295;22559;-85
2023/02/03 04:37:41;;;;;;;15.90;7.50;;;;;;;-1.89;85.32;100570.83;130900;1295;25284;-87
2023/02/03 04:40:44;;;;;;;14.30;7.20;;;;;;;-1.88;85.41;100563.15;130493;1298;25445;-88
2023/02/03 04:43:44;;;;;;;14.60;7.20;;;;;;;-1.88;85.57;100552.39;130840;1292;22678;-86
2023/02/03 04:46:45;;;;;;;16.20;7.30;;;;;;;-1.87;85.48;100553.01;130965;1295;22686;-87
2023/02/03 04:49:46;;;;;;;19.70;7.40;;;;;;;-1.85;85.59;100550.13;131265;1292;24369;-88
2023/02/03 04:52:47;;;;;;;13.90;7.00;;;;;;;-1.83;85.37;100541.88;131612;1296;22545;-88
2023/02/03 04:55:48;;;;;;;11.60;6.80;;;;;;;-1.80;85.59;100533.25;131621;1293;24430;-86
2023/02/03 04:58:48;;;;;;;14.10;6.00;;;;;;;-1.76;85.42;100524.38;131333;1294;22662;-88
2023/02/03 05:01:49;;;;;;;15.40;6.40;;;;;;;-1.73;85.48;100524.59;131280;1293;22683;-86
2023/02/03 05:04:49;;;;;;;19.10;7.50;;;;;;;-1.69;85.38;100521.80;131051;1294;24244;-86
2023/02/03 05:07:50;;;;;;;13.00;6.30;;;;;;;-1.66;85.36;100508.63;131104;1295;22602;-87
2023/02/03 05:10:51;;;;;;;17.30;6.80;;;;;;;-1.63;85.51;100504.08;130978;1297;22604;-86
2023/02/03 05:13:53;;;;;;;13.80;6.40;;;;;;;-1.59;85.11;100494.52;131014;1295;25314;-85
2023/02/03 05:16:54;;;;;;;11.30;5.10;;;;;;;-1.55;85.27;100487.55;130763;1296;23057;-89
2023/02/03 05:19:57;;;;;;;14.90;5.10;;;;;;;-1.52;84.91;100476.48;130905;1296;22584;-86
2023/02/03 05:22:58;;;;;;;16.50;6.10;;;;;;;-1.49;84.77;100462.42;130871;1292;25608;-86
2023/02/03 05:25:58;;;;;;;;;;;;;;;-1.46;84.38;100464.38;130903;1294;22824;-86
2023/02/03 05:29:00;;;;;;;11.30;4.60;;;;;;;-1.43;84.49;100464.34;131047;1296;22590;-89
2023/02/03 05:32:00;;;;;;;14.00;6.00;;;;;;;-1.39;84.30;100460.88;130585;1295;160094;-86
2023/02/03 05:35:01;;;;;;;12.30;5.60;;;;;;;-1.36;84.06;100458.92;130935;1292;25447;-85
2023/02/03 05:38:02;;;;;;;10.90;5.30;;;;;;;-1.33;84.06;100450.14;130845;1295;25983;-87
2023/02/03 05:44:25;;;;;;;12.70;5.10;;;;;;;-1.29;83.86;100443.84;130821;1298;23328;-88
2023/02/03 05:47:26;;;;;;;12.60;5.40;;;;;;;-1.26;84.08;100439.02;130798;1301;22678;-90
2023/02/03 05:50:32;;;;;;;14.80;5.70;;;;;;;-1.25;83.41;100434.91;130715;1295;22562;-89
2023/02/03 05:53:41;;;;;;;10.70;4.90;;;;;;;-1.23;83.71;100426.84;130722;1294;22574;-86
2023/02/03 05:56:42;;;;;;;10.00;4.40;;;;;;;-1.21;83.44;100424.11;130695;1295;22781;-87
2023/02/03 05:59:46;;;;;;;9.60;5.60;;;;;;;-1.19;83.73;100420.56;130414;1295;22616;-84
2023/02/03 06:02:51;;;;;;;9.70;4.90;;;;;;;-1.18;83.74;100417.91;130435;1294;22564;-85
2023/02/03 06:05:52;;;;;;;13.00;5.20;;;;;;;-1.16;83.32;100413.75;130512;1295;22623;-85
2023/02/03 06:08:55;;;;;;;10.20;4.70;;;;;;;-1.14;83.79;100411.75;130629;1296;22685;-85
2023/02/03 06:11:56;;;;;;;9.80;5.50;;;;;;;-1.14;84.02;100398.23;130460;1293;23011;-85
2023/02/03 06:14:57;;;;;;;14.30;5.30;;;;;;;-1.15;84.14;100404.19;130583;1293;22553;-84
2023/02/03 06:17:58;;;;;;;9.80;5.20;;;;;;;-1.17;84.18;100398.04;130949;1292;22599;-83
2023/02/03 06:20:58;;;;;;;11.80;4.90;;;;;;;-1.20;84.61;100399.05;131202;1294;22566;-84
2023/02/03 06:23:59;;;;;;;16.30;6.10;;;;;;;-1.23;85.04;100393.69;131053;1293;24063;-85
2023/02/03 06:27:05;;;;;;;9.60;5.20;;;;;;;-1.26;85.43;100386.23;130735;1293;22557;-85
2023/02/03 06:30:07;;;;;;;10.20;5.40;;;;;;;-1.30;85.61;100381.41;131083;1289;23578;-83
2023/02/03 06:33:08;;;;;;;15.60;5.90;;;;;;;-1.33;85.69;100376.02;131065;1293;23560;-83
2023/02/03 06:36:10;;;;;;;18.80;8.00;;;;;;;-1.36;85.84;100369.05;130744;1293;22683;-84
2023/02/03 06:39:10;;;;;;;13.10;8.60;;;;;;;-1.40;86.78;100363.17;130716;1295;24295;-84
2023/02/03 06:42:11;;;;;;;14.10;6.80;;;;;;;-1.43;87.13;100360.44;130873;1295;22574;-85
2023/02/03 06:45:13;;;;;;;17.10;9.90;;;;;;;-1.44;87.51;100356.14;131134;1285;24495;-84
2023/02/03 06:48:13;;;;;;;21.50;9.60;;;;;;;-1.45;87.70;100342.13;130843;1291;24879;-83
2023/02/03 06:51:14;;;;;;;17.30;8.40;;;;;;;-1.45;87.92;100339.52;131109;1295;25332;-83
2023/02/03 06:54:15;;;;;;;;;;;;;;;-1.46;88.30;100330.36;131156;1289;23566;-83
2023/02/03 06:57:15;;;;;;;16.60;8.10;;;;;;;-1.46;88.56;100313.39;131067;1294;25455;-82
2023/02/03 07:00:17;;;;;;;13.90;7.90;;;;;;;-1.47;88.97;100299.56;130814;1289;22559;-83
2023/02/03 07:03:21;;;;;;;18.50;7.60;;;;;;;-1.47;89.18;100291.25;130800;1291;22559;-81
2023/02/03 07:06:22;;;;;;;14.90;7.60;;;;;;;-1.46;89.10;100285.27;130844;1293;25376;-82
2023/02/03 07:09:23;;;;;;;16.70;7.70;;;;;;;-1.45;89.53;100272.19;131080;1295;22559;-82
2023/02/03 07:12:24;;;;;;;18.90;8.30;;;;;;;-1.43;89.76;100265.34;130909;1294;24383;-82
2023/02/03 07:15:25;;;;;;;19.50;9.10;;;;;;;-1.42;90.67;100259.70;130580;1290;22672;-83
2023/02/03 07:18:26;;;;;;;13.50;8.40;;;;;;;-1.39;90.55;100254.31;130828;1295;22559;-81
2023/02/03 07:21:26;;;;;;;17.50;9.20;;;;;;;-1.36;91.43;100237.30;130675;1288;22816;-82
2023/02/03 07:24:27;;;;;;;17.40;9.40;;;;;;;-1.31;91.31;100227.69;130914;1294;22569;-83
2023/02/03 07:27:28;;;;;;;18.00;9.30;;;;;;;-1.27;91.53;100215.83;130921;1295;22672;-83
2023/02/03 07:30:29;;;;;;;17.70;8.60;;;;;;;-1.23;92.02;100212.48;130952;1295;22594;-83
2023/02/03 07:33:30;;;;;;;15.10;8.90;;;;;;;-1.20;91.85;100203.95;131053;1294;24241;-81
2023/02/03 07:36:32;;;;;;;13.50;8.50;;;;;;;-1.16;92.20;100192.58;131024;1289;22576;-83
2023/02/03 07:39:33;;;;;;;;;;;;;;;-1.10;92.12;100185.66;130847;1285;25440;-81
2023/02/03 07:42:33;;;;;;;13.00;8.70;;;;;;;-1.05;92.35;100181.38;130567;1286;23056;-82
2023/02/03 07:45:35;;;;;;;10.90;8.20;;;;;;;-1.01;92.58;100172.95;130533;1289;23449;-82
2023/02/03 07:48:36;;;;;;;9.40;7.00;;;;;;;-0.95;92.78;100165.85;131143;1293;24289;-81
2023/02/03 07:51:37;;;;;;;12.20;7.90;;;;;;;-0.91;92.71;100157.23;130790;1293;24947;-82
2023/02/03 07:54:37;;;;;;;14.80;7.40;;;;;;;-0.85;93.14;100142.31;130701;1294;23944;-83
2023/02/03 07:57:42;;;;;;;10.80;6.70;;;;;;;-0.81;93.68;100128.36;130975;1292;22630;-84
2023/02/03 08:00:45;;;;;;;9.30;6.30;;;;;;;-0.77;94.05;100118.22;130936;1289;22561;-84
2023/02/03 08:03:46;;;;;;;10.50;5.90;;;;;;;-0.74;94.07;100107.75;130771;1286;23357;-83
2023/02/03 08:06:47;;;;;;;9.70;6.20;;;;;;;-0.71;93.89;100099.92;130705;1285;25521;-82
2023/02/03 08:09:47;;;;;;;11.80;7.80;;;;;;;-0.67;94.04;100093.42;130545;1288;22572;-84
2023/02/03 08:12:48;;;;;;;15.80;9.60;;;;;;;-0.64;94.34;100085.75;130514;1293;22587;-82
2023/02/03 08:15:48;;;;;;;8.30;6.30;;;;;;;-0.63;94.60;100079.29;130911;1292;25278;-82
2023/02/03 08:18:49;;;;;;;10.30;7.40;;;;;;;-0.61;94.92;100075.48;130838;1294;22678;-81
2023/02/03 08:21:50;;;;;;;9.80;7.10;;;;;;;-0.59;94.73;100063.39;130524;1292;25307;-82
2023/02/03 08:24:51;;;;;;;8.70;5.90;;;;;;;-0.58;94.51;100053.92;130433;1288;25313;-82
2023/02/03 08:27:52;;;;;;;8.90;5.90;;;;;;;-0.55;94.86;100042.98;130786;1285;22586;-82
2023/02/03 08:30:53;;;;;;;9.30;6.20;;;;;;;-0.54;94.69;100030.55;130769;1295;25370;-82
2023/02/03 08:33:53;;;;;;;8.20;5.10;;;;;;;-0.52;94.88;100027.48;130719;1288;25329;-82
2023/02/03 08:36:54;;;;;;;8.90;5.70;;;;;;;-0.50;95.13;100021.80;130278;1295;22557;-82
2023/02/03 08:39:55;;;;;;;6.60;5.40;;;;;;;-0.49;95.21;100010.10;130622;1291;22692;-83
2023/02/03 08:42:56;;;;;;;9.50;5.80;;;;;;;-0.47;95.62;100008.26;130641;1295;22698;-81
2023/02/03 08:46:02;;;;;;;8.70;6.00;;;;;;;-0.44;95.90;99994.71;130634;1293;22568;-82
2023/02/03 08:49:02;;;;;;;9.10;6.00;;;;;;;-0.42;95.84;99991.27;131082;1291;22648;-84
2023/02/03 08:52:05;;;;;;;8.80;6.00;;;;;;;-0.40;96.00;99983.14;130630;1295;23409;-84
2023/02/03 08:55:06;;;;;;;8.90;5.70;;;;;;;-0.39;95.98;99976.96;130680;1295;22573;-83
2023/02/03 08:58:07;;;;;;;8.00;5.00;;;;;;;-0.39;96.09;99961.65;130809;1280;25551;-83
2023/02/03 09:01:14;;;;;;;8.40;4.80;;;;;;;-0.36;96.12;99963.76;130952;1288;24310;-83
2023/02/03 09:04:23;;;;;;;7.50;5.30;;;;;;;-0.36;96.16;99959.92;130780;1289;26550;-80
2023/02/03 09:07:24;;;;;;;6.90;4.10;;;;;;;-0.33;96.05;99948.11;131082;1291;25325;-81
2023/02/03 09:10:25;;;;;;;8.10;4.50;;;;;;;-0.31;96.20;99944.48;131149;1292;23025;-81
2023/02/03 09:13:26;;;;;;;7.10;4.80;;;;;;;-0.28;95.95;99935.89;131228;1294;23923;-81
2023/02/03 09:16:26;;;;;;;6.10;4.30;;;;;;;-0.25;96.09;99927.02;131166;1285;22553;-81
2023/02/03 09:19:27;;;;;;;7.40;4.30;;;;;;;-0.24;96.27;99913.89;130864;1288;22559;-83
2023/02/03 09:22:28;;;;;;;7.80;4.90;;;;;;;-0.22;96.33;99909.80;130706;1286;24233;-83
2023/02/03 09:25:28;;;;;;;5.50;4.20;;;;;;;-0.20;96.47;99896.77;131100;1285;24287;-83
2023/02/03 09:28:29;;;;;;;8.90;5.10;;;;;;;-0.16;96.58;99900.02;131259;1289;22550;-83
2023/02/03 09:31:31;;;;;;;9.00;5.30;;;;;;;-0.09;96.28;99895.69;130595;1289;25316;-84
2023/02/03 09:34:32;;;;;;;8.60;5.20;;;;;;;-0.03;96.27;99881.21;131119;1290;22672;-82
2023/02/03 09:37:32;;;;;;;8.60;5.30;;;;;;;0.01;96.27;99867.53;130959;1291;22667;-83
2023/02/03 09:40:36;;;;;;;7.20;5.70;;;;;;;0.02;96.04;99860.86;130736;1286;22615;-84
2023/02/03 09:43:55;;;;;;;10.20;6.30;;;;;;;0.04;96.01;99851.54;130864;1288;24020;-81
2023/02/03 09:47:01;;;;;;;7.40;5.40;;;;;;;0.06;95.96;99845.27;130741;1290;22556;-81
2023/02/03 09:50:06;;;;;;;12.50;7.20;;;;;;;0.08;95.72;99838.02;130836;1293;22559;-82
2023/02/03 09:53:20;;;;;;;7.80;5.00;;;;;;;0.09;96.08;99821.46;131186;1286;24247;-82
2023/02/03 09:56:45;;;;;;;11.20;7.30;;;;;;;0.09;96.01;99824.55;130593;1295;22648;-82
2023/02/03 09:59:47;;;;;;;9.00;6.30;;;;;;;0.10;95.98;99811.44;130496;1295;22679;-82
2023/02/03 10:02:50;;;;;;;10.50;6.50;;;;;;;0.10;95.99;99780.14;130575;1286;22576;-81
2023/02/03 10:06:15;;;;;;;9.10;5.90;;;;;;;0.07;96.42;99779.15;130861;1291;22554;-82
2023/02/03 10:09:54;;;;;;;12.40;7.20;;;;;;;0.07;95.89;99799.84;130577;1291;22574;-82
2023/02/03 10:13:09;;;;;;;10.20;6.90;;;;;;;0.09;95.77;99789.23;130924;1295;25447;-82
2023/02/03 10:16:19;;;;;;;11.00;7.30;;;;;;;0.12;95.82;99784.34;130919;1286;22662;-81
2023/02/03 10:19:25;;;;;;;10.40;6.60;;;;;;;0.13;95.79;99776.75;131045;1285;23316;-81
2023/02/03 10:22:30;;;;;;;11.80;6.60;;;;;;;0.14;96.42;99750.61;130861;1293;24225;-82
2023/02/03 10:25:55;;;;;;;10.70;6.50;;;;;;;0.13;96.62;99726.54;130594;1295;25382;-82
2023/02/03 10:29:13;;;;;;;10.10;7.10;;;;;;;0.16;97.14;99713.63;131065;1286;22700;-81
2023/02/03 10:32:14;;;;;;;14.20;8.50;;;;;;;0.19;96.64;99697.04;130725;1291;24401;-82
2023/02/03 10:35:15;;;;;;;17.40;9.40;;;;;;;0.23;96.44;99692.74;130574;1295;25548;-82
2023/02/03 10:38:26;;;;;;;14.50;8.40;;;;;;;0.26;96.30;99689.55;130721;1287;22578;-82
2023/02/03 10:41:30;;;;;;;13.40;7.10;;;;;;;0.30;96.49;99675.57;130578;1288;22697;-82
2023/02/03 10:44:37;;;;;;;12.10;8.00;;;;;;;0.32;96.70;99667.37;130670;1295;22610;-82
2023/02/03 10:47:48;;;;;;;13.90;8.00;;;;;;;0.33;96.59;99661.58;130554;1296;22560;-82
2023/02/03 10:50:52;;;;;;;14.30;8.20;;;;;;;0.33;96.31;99653.70;130674;1288;23924;-82
2023/02/03 10:53:53;;;;;;;15.90;8.00;;;;;;;0.32;96.58;99638.46;130563;1291;24068;-82
2023/02/03 10:57:01;;;;;;;11.70;8.10;;;;;;;0.32;96.61;99610.12;130649;1294;22505;-83
2023/02/03 11:00:07;;;;;;;13.50;7.80;;;;;;;0.33;96.80;99593.18;130609;1294;22576;-84
2023/02/03 11:03:50;;;;;;;14.00;9.10;;;;;;;0.35;96.69;99581.19;130511;1295;22556;-84
2023/02/03 11:07:04;;;;;;;12.40;7.90;;;;;;;0.39;97.11;99572.20;130210;1298;23153;-82
2023/02/03 11:10:25;;;;;;;13.30;8.20;;;;;;;0.44;97.13;99560.50;130025;1298;23038;-84
2023/02/03 11:13:26;;;;;;;16.10;10.30;;;;;;;0.48;96.97;99548.52;129765;1291;22614;-84
2023/02/03 11:16:28;;;;;;;12.70;8.70;;;;;;;0.55;97.08;99545.45;130084;1298;23911;-84
2023/02/03 11:19:29;;;;;;;13.90;8.70;;;;;;;0.59;97.17;99535.54;130171;1291;22636;-84
2023/02/03 11:22:33;;;;;;;;;;;;;;;0.64;97.17;99540.76;130024;1294;24242;-84
2023/02/03 11:25:35;;;;;;;13.40;7.30;;;;;;;0.65;97.08;99530.91;130098;1298;22569;-85
2023/02/03 11:28:36;;;;;;;11.50;7.50;;;;;;;0.66;97.07;99519.31;129585;1298;22558;-84
2023/02/03 11:31:36;;;;;;;;;;;;;;;0.70;97.32;99505.77;129879;1291;24281;-84
2023/02/03 11:34:38;;;;;;;15.90;8.70;;;;;;;0.74;97.35;99489.48;130038;1297;22594;-83
2023/02/03 11:37:40;;;;;;;13.20;8.90;;;;;;;0.79;97.54;99479.17;129966;1286;22582;-84
2023/02/03 11:40:41;;;;;;;12.10;7.00;;;;;;;0.84;97.55;99467.58;130567;1296;22578;-84
2023/02/03 11:43:45;;;;;;;14.30;6.70;;;;;;;0.93;98.02;99454.24;130783;1294;25508;-84
2023/02/03 11:46:50;;;;;;;19.40;7.90;;;;;;;0.98;98.07;99446.84;130659;1285;22676;-84
2023/02/03 11:50:17;;;;;;;11.10;7.40;;;;;;;1.01;98.05;99436.67;130494;1286;22555;-85
2023/02/03 11:53:36;;;;;;;8.90;5.40;;;;;;;1.04;97.62;99424.75;130711;1289;23863;-84
2023/02/03 11:56:39;;;;;;;11.40;6.70;;;;;;;1.03;97.82;99411.42;130836;1295;24224;-82
2023/02/03 11:59:47;;;;;;;7.90;5.50;;;;;;;1.08;97.76;99416.61;130583;1295;22547;-82
2023/02/03 12:02:54;;;;;;;8.40;4.70;;;;;;;1.08;97.58;99404.02;130638;1287;25299;-82
2023/02/03 12:06:09;;;;;;;10.40;5.40;;;;;;;1.10;97.83;99391.55;130941;1295;22573;-84
2023/02/03 12:09:29;;;;;;;8.30;4.70;;;;;;;1.12;98.01;99384.37;130671;1295;22671;-84
2023/02/03 12:12:44;;;;;;;6.80;4.50;;;;;;;1.13;98.01;99374.73;130824;1295;25453;-84
2023/02/03 12:15:45;;;;;;;6.10;3.70;;;;;;;1.15;97.92;99363.61;130789;1293;24406;-83
2023/02/03 12:18:58;;;;;;;6.40;3.90;;;;;;;1.17;98.13;99358.05;130650;1295;22563;-83
2023/02/03 12:22:23;;;;;;;5.90;3.70;;;;;;;1.20;98.07;99355.84;130961;1293;25274;-83
2023/02/03 12:25:58;;;;;;;6.30;3.90;;;;;;;1.24;98.13;99349.27;130543;1286;22561;-83
2023/02/03 12:29:12;;;;;;;9.20;5.80;;;;;;;1.28;98.30;99345.13;130693;1288;25424;-83
2023/02/03 12:32:25;;;;;;;15.20;8.20;;;;;;;1.31;98.38;99334.36;130453;1286;25403;-83
2023/02/03 12:35:45;;;;;;;12.00;6.80;;;;;;;1.37;98.22;99326.13;130406;1295;22579;-83
2023/02/03 12:38:55;;;;;;;18.70;9.40;;;;;;;1.40;98.13;99315.20;130768;1286;22556;-83
2023/02/03 12:42:06;;;;;;;17.90;9.20;;;;;;;1.45;98.17;99307.23;130937;1293;22559;-83
2023/02/03 12:45:08;;;;;;;14.20;8.50;;;;;;;1.51;98.23;99292.28;130807;1289;22559;-82
2023/02/03 12:48:19;;;;;;;12.20;6.60;;;;;;;1.56;98.12;99292.05;131526;1292;22622;-83
2023/02/03 12:51:43;;;;;;;8.80;5.70;;;;;;;1.62;98.47;99279.31;131361;1286;24265;-83
2023/02/03 12:55:09;;;;;;;18.10;7.60;;;;;;;1.69;98.40;99275.11;130826;1286;22778;-83
2023/02/03 12:58:20;;;;;;;12.00;7.10;;;;;;;1.76;98.43;99267.55;131122;1291;22577;-83
2023/02/03 13:01:33;;;;;;;15.60;8.20;;;;;;;1.83;98.66;99260.64;130566;1294;22573;-81
2023/02/03 13:04:40;;;;;;;21.20;10.60;;;;;;;1.94;98.75;99259.71;131001;1291;25319;-84
2023/02/03 13:07:56;;;;;;;25.30;10.80;;;;;;;2.02;98.88;99253.73;130949;1293;24543;-83
2023/02/03 13:11:10;;;;;;;16.90;8.30;;;;;;;2.08;99.10;99246.30;130808;1294;24393;-83
2023/02/03 13:14:25;;;;;;;8.40;4.80;;;;;;;2.16;99.26;99238.62;130896;1289;22560;-83
2023/02/03 13:17:32;;;;;;;6.50;3.90;;;;;;;2.29;99.83;99235.40;130745;1292;22539;-83
2023/02/03 13:20:38;;;;;;;5.70;3.20;;;;;;;2.44;100.00;99232.43;131000;1295;22553;-82
2023/02/03 13:23:43;;;;;;;5.00;3.90;;;;;;;2.60;100.00;99234.57;130946;1289;22675;-82
2023/02/03 13:27:04;;;;;;;5.60;3.60;;;;;;;2.72;100.00;99226.98;130725;1295;24418;-82
2023/02/03 13:30:42;;;;;;;7.10;3.70;;;;;;;2.86;100.00;99223.98;130907;1295;23408;-81
2023/02/03 13:33:49;;;;;;;16.10;9.90;;;;;;;3.04;100.00;99233.02;131134;1295;22552;-81
2023/02/03 13:36:50;;;;;;;10.50;5.90;;;;;;;3.12;100.00;99239.92;131130;1286;24232;-80
2023/02/03 13:40:26;;;;;;;7.50;3.80;;;;;;;3.13;100.00;99252.44;130893;1290;22589;-81
2023/02/03 13:43:42;;;;;;;9.40;4.10;;;;;;;3.15;100.00;99264.86;130447;1288;22565;-82
2023/02/03 13:46:49;;;;;;;6.30;4.40;;;;;;;3.19;100.00;99270.27;130340;1288;25367;-82
2023/02/03 13:50:05;;;;;;;5.00;3.60;;;;;;;3.22;100.00;99257.09;130788;1286;25503;-82
2023/02/03 13:53:27;;;;;;;7.10;5.10;;;;;;;3.24;100.00;99219.67;130808;1292;22701;-82
2023/02/03 13:56:29;;;;;;;5.30;3.50;;;;;;;3.36;100.00;99194.05;130546;1289;25391;-82
2023/02/03 13:59:43;;;;;;;5.40;3.70;;;;;;;3.47;100.00;99198.13;130912;1286;22642;-80
2023/02/03 14:02:52;;;;;;;21.10;8.30;;;;;;;3.52;100.00;99198.27;131133;1292;25379;-81
2023/02/03 14:05:55;;;;;;;6.10;3.50;;;;;;;3.57;100.00;99208.83;131016;1286;22576;-82
2023/02/03 14:08:59;;;;;;;8.50;3.30;;;;;;;3.64;100.00;99221.67;131036;1294;25452;-81
2023/02/03 14:12:15;;;;;;;5.20;3.20;;;;;;;3.69;100.00;99228.95;130806;1292;24196;-82
2023/02/03 14:15:18;;;;;;;6.20;3.30;;;;;;;3.76;100.00;99229.69;130664;1291;22554;-83
2023/02/03 14:18:43;;;;;;;5.10;3.30;;;;;;;3.81;100.00;99230.93;130647;1287;23902;-81